sensor_id;sensor_type;location;lat;lon;timestamp;P1;durP1;ratioP1;P2;durP2;ratioP2
15905;SDS011;8051;50.820;4.884;2022-10-31T00:01:00;38.13;;;28.27;;
15905;SDS011;8051;50.820;4.884;2022-10-31T00:03:29;37.03;;;30.33;;
15905;SDS011;8051;50.820;4.884;2022-10-31T00:05:56;37.03;;;27.80;;
15905;SDS011;8051;50.820;4.884;2022-10-31T00:08:23;35.07;;;27.60;;
15905;SDS011;8051;50.820;4.884;2022-10-31T00:10:51;32.77;;;29.17;;
15905;SDS011;8051;50.820;4.884;2022-10-31T00:13:18;38.43;;;29.27;;
15905;SDS011;8051;50.820;4.884;2022-10-31T00:15:46;33.43;;;27.60;;
15905;SDS011;8051;50.820;4.884;2022-10-31T00:18:13;32.23;;;28.60;;
15905;SDS011;8051;50.820;4.884;2022-10-31T00:20:42;37.57;;;28.07;;
15905;SDS011;8051;50.820;4.884;2022-10-31T00:23:10;32.63;;;28.77;;
15905;SDS011;8051;50.820;4.884;2022-10-31T00:25:38;36.00;;;27.93;;
15905;SDS011;8051;50.820;4.884;2022-10-31T00:28:07;30.90;;;26.47;;
15905;SDS011;8051;50.820;4.884;2022-10-31T00:30:37;35.23;;;27.67;;
15905;SDS011;8051;50.820;4.884;2022-10-31T00:33:04;35.57;;;28.17;;
15905;SDS011;8051;50.820;4.884;2022-10-31T00:35:31;33.13;;;29.23;;
15905;SDS011;8051;50.820;4.884;2022-10-31T00:38:01;34.20;;;27.43;;
15905;SDS011;8051;50.820;4.884;2022-10-31T00:40:28;35.93;;;29.40;;
15905;SDS011;8051;50.820;4.884;2022-10-31T00:42:56;37.03;;;29.33;;
15905;SDS011;8051;50.820;4.884;2022-10-31T00:45:23;32.23;;;28.27;;
15905;SDS011;8051;50.820;4.884;2022-10-31T00:47:50;41.67;;;30.97;;
15905;SDS011;8051;50.820;4.884;2022-10-31T00:50:18;35.03;;;29.97;;
15905;SDS011;8051;50.820;4.884;2022-10-31T00:52:45;37.53;;;30.67;;
15905;SDS011;8051;50.820;4.884;2022-10-31T00:55:14;36.23;;;30.50;;
15905;SDS011;8051;50.820;4.884;2022-10-31T00:57:42;37.80;;;30.23;;
15905;SDS011;8051;50.820;4.884;2022-10-31T01:00:12;40.27;;;30.80;;
15905;SDS011;8051;50.820;4.884;2022-10-31T01:02:40;35.43;;;29.03;;
15905;SDS011;8051;50.820;4.884;2022-10-31T01:05:07;32.70;;;28.57;;
15905;SDS011;8051;50.820;4.884;2022-10-31T01:07:35;33.23;;;26.47;;
15905;SDS011;8051;50.820;4.884;2022-10-31T01:10:03;35.53;;;27.83;;
15905;SDS011;8051;50.820;4.884;2022-10-31T01:12:36;35.87;;;30.37;;
15905;SDS011;8051;50.820;4.884;2022-10-31T01:15:04;36.77;;;29.77;;
15905;SDS011;8051;50.820;4.884;2022-10-31T01:17:33;36.53;;;28.07;;
15905;SDS011;8051;50.820;4.884;2022-10-31T01:20:00;31.03;;;27.67;;
15905;SDS011;8051;50.820;4.884;2022-10-31T01:22:28;32.77;;;28.43;;
15905;SDS011;8051;50.820;4.884;2022-10-31T01:24:55;35.17;;;27.53;;
15905;SDS011;8051;50.820;4.884;2022-10-31T01:27:22;31.13;;;27.43;;
15905;SDS011;8051;50.820;4.884;2022-10-31T01:29:51;34.13;;;26.83;;
15905;SDS011;8051;50.820;4.884;2022-10-31T01:32:19;38.70;;;28.43;;
15905;SDS011;8051;50.820;4.884;2022-10-31T01:34:46;39.43;;;27.70;;
15905;SDS011;8051;50.820;4.884;2022-10-31T01:37:14;33.27;;;26.83;;
15905;SDS011;8051;50.820;4.884;2022-10-31T01:39:41;32.60;;;26.03;;
15905;SDS011;8051;50.820;4.884;2022-10-31T01:42:09;30.10;;;26.60;;
15905;SDS011;8051;50.820;4.884;2022-10-31T01:44:50;34.00;;;27.47;;
15905;SDS011;8051;50.820;4.884;2022-10-31T01:47:31;31.47;;;27.80;;
15905;SDS011;8051;50.820;4.884;2022-10-31T01:50:06;36.00;;;27.20;;
15905;SDS011;8051;50.820;4.884;2022-10-31T01:52:40;32.50;;;27.60;;
15905;SDS011;8051;50.820;4.884;2022-10-31T01:55:12;29.27;;;26.10;;
15905;SDS011;8051;50.820;4.884;2022-10-31T01:57:44;34.00;;;26.90;;
15905;SDS011;8051;50.820;4.884;2022-10-31T02:00:16;29.67;;;26.40;;
15905;SDS011;8051;50.820;4.884;2022-10-31T02:02:45;35.87;;;27.27;;
15905;SDS011;8051;50.820;4.884;2022-10-31T02:05:14;31.50;;;25.70;;
15905;SDS011;8051;50.820;4.884;2022-10-31T02:07:45;33.10;;;25.97;;
15905;SDS011;8051;50.820;4.884;2022-10-31T02:10:18;31.97;;;25.60;;
15905;SDS011;8051;50.820;4.884;2022-10-31T02:12:47;28.57;;;25.77;;
15905;SDS011;8051;50.820;4.884;2022-10-31T02:15:18;33.10;;;26.83;;
15905;SDS011;8051;50.820;4.884;2022-10-31T02:17:45;28.27;;;24.33;;
15905;SDS011;8051;50.820;4.884;2022-10-31T02:20:14;28.40;;;25.20;;
15905;SDS011;8051;50.820;4.884;2022-10-31T02:22:56;27.20;;;24.40;;
15905;SDS011;8051;50.820;4.884;2022-10-31T02:25:59;36.27;;;26.27;;
15905;SDS011;8051;50.820;4.884;2022-10-31T02:28:43;27.30;;;24.40;;
15905;SDS011;8051;50.820;4.884;2022-10-31T02:31:30;28.57;;;25.50;;
15905;SDS011;8051;50.820;4.884;2022-10-31T02:34:08;28.27;;;25.13;;
15905;SDS011;8051;50.820;4.884;2022-10-31T02:36:46;30.50;;;25.07;;
15905;SDS011;8051;50.820;4.884;2022-10-31T02:39:22;28.70;;;25.70;;
15905;SDS011;8051;50.820;4.884;2022-10-31T02:41:56;27.70;;;24.73;;
15905;SDS011;8051;50.820;4.884;2022-10-31T02:44:32;26.63;;;23.97;;
15905;SDS011;8051;50.820;4.884;2022-10-31T02:47:07;27.83;;;24.57;;
15905;SDS011;8051;50.820;4.884;2022-10-31T02:49:40;26.37;;;23.63;;
15905;SDS011;8051;50.820;4.884;2022-10-31T02:52:18;28.37;;;24.53;;
15905;SDS011;8051;50.820;4.884;2022-10-31T02:54:47;26.43;;;23.70;;
15905;SDS011;8051;50.820;4.884;2022-10-31T02:57:15;25.53;;;23.00;;
15905;SDS011;8051;50.820;4.884;2022-10-31T02:59:47;26.47;;;23.77;;
15905;SDS011;8051;50.820;4.884;2022-10-31T03:02:24;27.63;;;24.87;;
15905;SDS011;8051;50.820;4.884;2022-10-31T03:05:10;27.93;;;25.20;;
15905;SDS011;8051;50.820;4.884;2022-10-31T03:07:51;27.93;;;24.80;;
15905;SDS011;8051;50.820;4.884;2022-10-31T03:10:28;28.17;;;25.27;;
15905;SDS011;8051;50.820;4.884;2022-10-31T03:13:05;26.17;;;23.53;;
15905;SDS011;8051;50.820;4.884;2022-10-31T03:15:37;25.73;;;22.60;;
15905;SDS011;8051;50.820;4.884;2022-10-31T03:18:10;24.47;;;21.93;;
15905;SDS011;8051;50.820;4.884;2022-10-31T03:20:45;26.73;;;23.97;;
15905;SDS011;8051;50.820;4.884;2022-10-31T03:23:17;25.57;;;23.03;;
15905;SDS011;8051;50.820;4.884;2022-10-31T03:25:47;25.97;;;23.00;;
15905;SDS011;8051;50.820;4.884;2022-10-31T03:28:16;26.73;;;23.17;;
15905;SDS011;8051;50.820;4.884;2022-10-31T03:30:48;24.97;;;22.23;;
15905;SDS011;8051;50.820;4.884;2022-10-31T03:33:21;25.10;;;22.80;;
15905;SDS011;8051;50.820;4.884;2022-10-31T03:35:54;26.47;;;23.67;;
15905;SDS011;8051;50.820;4.884;2022-10-31T03:38:22;25.83;;;22.53;;
15905;SDS011;8051;50.820;4.884;2022-10-31T03:40:50;24.50;;;21.93;;
15905;SDS011;8051;50.820;4.884;2022-10-31T03:43:21;25.20;;;22.47;;
15905;SDS011;8051;50.820;4.884;2022-10-31T03:45:52;26.93;;;24.27;;
15905;SDS011;8051;50.820;4.884;2022-10-31T03:48:21;29.50;;;25.40;;
15905;SDS011;8051;50.820;4.884;2022-10-31T03:50:51;27.73;;;24.87;;
15905;SDS011;8051;50.820;4.884;2022-10-31T03:53:25;24.47;;;21.87;;
15905;SDS011;8051;50.820;4.884;2022-10-31T03:55:59;26.63;;;23.80;;
15905;SDS011;8051;50.820;4.884;2022-10-31T03:58:29;25.67;;;22.63;;
15905;SDS011;8051;50.820;4.884;2022-10-31T04:01:02;27.60;;;24.37;;
15905;SDS011;8051;50.820;4.884;2022-10-31T04:03:34;27.07;;;24.27;;
15905;SDS011;8051;50.820;4.884;2022-10-31T04:06:05;29.47;;;26.43;;
15905;SDS011;8051;50.820;4.884;2022-10-31T04:08:36;29.23;;;26.30;;
15905;SDS011;8051;50.820;4.884;2022-10-31T04:11:08;26.93;;;22.33;;
15905;SDS011;8051;50.820;4.884;2022-10-31T04:13:38;27.23;;;24.63;;
15905;SDS011;8051;50.820;4.884;2022-10-31T04:16:07;27.53;;;24.77;;
15905;SDS011;8051;50.820;4.884;2022-10-31T04:18:36;27.77;;;24.23;;
15905;SDS011;8051;50.820;4.884;2022-10-31T04:21:04;29.20;;;23.33;;
15905;SDS011;8051;50.820;4.884;2022-10-31T04:23:33;26.67;;;23.73;;
15905;SDS011;8051;50.820;4.884;2022-10-31T04:26:02;26.73;;;23.93;;
15905;SDS011;8051;50.820;4.884;2022-10-31T04:28:30;27.77;;;23.90;;
15905;SDS011;8051;50.820;4.884;2022-10-31T04:30:58;26.57;;;23.93;;
15905;SDS011;8051;50.820;4.884;2022-10-31T04:33:26;28.77;;;25.43;;
15905;SDS011;8051;50.820;4.884;2022-10-31T04:35:55;32.27;;;24.73;;
15905;SDS011;8051;50.820;4.884;2022-10-31T04:38:22;30.17;;;27.23;;
15905;SDS011;8051;50.820;4.884;2022-10-31T04:40:50;29.60;;;24.60;;
15905;SDS011;8051;50.820;4.884;2022-10-31T04:43:17;28.50;;;25.57;;
15905;SDS011;8051;50.820;4.884;2022-10-31T04:45:44;26.80;;;24.17;;
15905;SDS011;8051;50.820;4.884;2022-10-31T04:48:12;32.53;;;26.13;;
15905;SDS011;8051;50.820;4.884;2022-10-31T04:50:39;24.67;;;22.10;;
15905;SDS011;8051;50.820;4.884;2022-10-31T04:53:08;30.50;;;24.43;;
15905;SDS011;8051;50.820;4.884;2022-10-31T04:55:36;28.53;;;25.67;;
15905;SDS011;8051;50.820;4.884;2022-10-31T04:58:03;28.23;;;24.47;;
15905;SDS011;8051;50.820;4.884;2022-10-31T05:00:31;26.13;;;23.33;;
15905;SDS011;8051;50.820;4.884;2022-10-31T05:02:58;28.70;;;23.00;;
15905;SDS011;8051;50.820;4.884;2022-10-31T05:05:26;27.87;;;24.10;;
15905;SDS011;8051;50.820;4.884;2022-10-31T05:07:55;26.50;;;23.57;;
15905;SDS011;8051;50.820;4.884;2022-10-31T05:10:25;25.93;;;22.37;;
15905;SDS011;8051;50.820;4.884;2022-10-31T05:12:54;25.30;;;22.07;;
15905;SDS011;8051;50.820;4.884;2022-10-31T05:15:23;28.23;;;25.33;;
15905;SDS011;8051;50.820;4.884;2022-10-31T05:17:52;26.83;;;22.33;;
15905;SDS011;8051;50.820;4.884;2022-10-31T05:20:21;24.73;;;22.20;;
15905;SDS011;8051;50.820;4.884;2022-10-31T05:22:52;25.87;;;23.10;;
15905;SDS011;8051;50.820;4.884;2022-10-31T05:25:22;26.37;;;23.17;;
15905;SDS011;8051;50.820;4.884;2022-10-31T05:27:53;26.10;;;23.33;;
15905;SDS011;8051;50.820;4.884;2022-10-31T05:30:22;26.20;;;23.60;;
15905;SDS011;8051;50.820;4.884;2022-10-31T05:32:51;26.53;;;23.93;;
15905;SDS011;8051;50.820;4.884;2022-10-31T05:35:19;26.23;;;23.67;;
15905;SDS011;8051;50.820;4.884;2022-10-31T05:37:47;26.87;;;22.97;;
15905;SDS011;8051;50.820;4.884;2022-10-31T05:40:16;27.53;;;24.70;;
15905;SDS011;8051;50.820;4.884;2022-10-31T05:42:44;25.20;;;22.67;;
15905;SDS011;8051;50.820;4.884;2022-10-31T05:45:14;27.33;;;24.37;;
15905;SDS011;8051;50.820;4.884;2022-10-31T05:47:49;27.47;;;24.67;;
15905;SDS011;8051;50.820;4.884;2022-10-31T05:50:17;26.07;;;23.27;;
15905;SDS011;8051;50.820;4.884;2022-10-31T05:52:45;28.60;;;23.63;;
15905;SDS011;8051;50.820;4.884;2022-10-31T05:55:12;26.27;;;23.47;;
15905;SDS011;8051;50.820;4.884;2022-10-31T05:57:40;26.27;;;22.77;;
15905;SDS011;8051;50.820;4.884;2022-10-31T06:00:08;26.30;;;23.63;;
15905;SDS011;8051;50.820;4.884;2022-10-31T06:02:37;26.03;;;23.07;;
15905;SDS011;8051;50.820;4.884;2022-10-31T06:05:05;32.93;;;29.40;;
15905;SDS011;8051;50.820;4.884;2022-10-31T06:07:33;34.30;;;26.80;;
15905;SDS011;8051;50.820;4.884;2022-10-31T06:10:01;34.70;;;27.00;;
15905;SDS011;8051;50.820;4.884;2022-10-31T06:12:31;34.03;;;28.77;;
15905;SDS011;8051;50.820;4.884;2022-10-31T06:15:02;28.43;;;25.13;;
15905;SDS011;8051;50.820;4.884;2022-10-31T06:17:32;28.70;;;25.67;;
15905;SDS011;8051;50.820;4.884;2022-10-31T06:20:02;27.97;;;23.43;;
15905;SDS011;8051;50.820;4.884;2022-10-31T06:22:30;28.10;;;25.20;;
15905;SDS011;8051;50.820;4.884;2022-10-31T06:24:58;29.50;;;25.63;;
15905;SDS011;8051;50.820;4.884;2022-10-31T06:27:25;27.50;;;24.80;;
15905;SDS011;8051;50.820;4.884;2022-10-31T06:29:53;28.90;;;25.60;;
15905;SDS011;8051;50.820;4.884;2022-10-31T06:32:20;28.80;;;25.80;;
15905;SDS011;8051;50.820;4.884;2022-10-31T06:34:48;30.47;;;27.17;;
15905;SDS011;8051;50.820;4.884;2022-10-31T06:37:17;29.93;;;26.77;;
15905;SDS011;8051;50.820;4.884;2022-10-31T06:39:44;29.00;;;24.90;;
15905;SDS011;8051;50.820;4.884;2022-10-31T06:42:11;32.90;;;26.80;;
15905;SDS011;8051;50.820;4.884;2022-10-31T06:44:41;33.10;;;27.90;;
15905;SDS011;8051;50.820;4.884;2022-10-31T06:47:09;33.60;;;25.83;;
15905;SDS011;8051;50.820;4.884;2022-10-31T06:49:37;30.27;;;26.77;;
15905;SDS011;8051;50.820;4.884;2022-10-31T06:52:04;40.27;;;27.33;;
15905;SDS011;8051;50.820;4.884;2022-10-31T06:54:33;35.37;;;27.23;;
15905;SDS011;8051;50.820;4.884;2022-10-31T06:57:00;35.03;;;28.63;;
15905;SDS011;8051;50.820;4.884;2022-10-31T06:59:28;34.30;;;27.93;;
15905;SDS011;8051;50.820;4.884;2022-10-31T07:01:55;39.77;;;32.00;;
15905;SDS011;8051;50.820;4.884;2022-10-31T07:04:24;33.57;;;28.97;;
15905;SDS011;8051;50.820;4.884;2022-10-31T07:06:51;36.00;;;27.20;;
15905;SDS011;8051;50.820;4.884;2022-10-31T07:09:18;33.33;;;27.37;;
15905;SDS011;8051;50.820;4.884;2022-10-31T07:11:48;30.73;;;26.10;;
15905;SDS011;8051;50.820;4.884;2022-10-31T07:14:18;33.70;;;26.17;;
15905;SDS011;8051;50.820;4.884;2022-10-31T07:16:47;33.47;;;29.07;;
15905;SDS011;8051;50.820;4.884;2022-10-31T07:19:15;35.23;;;28.67;;
15905;SDS011;8051;50.820;4.884;2022-10-31T07:21:42;28.43;;;25.53;;
15905;SDS011;8051;50.820;4.884;2022-10-31T07:24:10;32.80;;;26.83;;
15905;SDS011;8051;50.820;4.884;2022-10-31T07:26:37;33.87;;;28.23;;
15905;SDS011;8051;50.820;4.884;2022-10-31T07:29:06;31.10;;;27.40;;
15905;SDS011;8051;50.820;4.884;2022-10-31T07:31:34;30.30;;;27.10;;
15905;SDS011;8051;50.820;4.884;2022-10-31T07:34:01;33.10;;;29.20;;
15905;SDS011;8051;50.820;4.884;2022-10-31T07:36:29;34.63;;;29.10;;
15905;SDS011;8051;50.820;4.884;2022-10-31T07:38:56;31.40;;;27.93;;
15905;SDS011;8051;50.820;4.884;2022-10-31T07:41:24;40.97;;;29.73;;
15905;SDS011;8051;50.820;4.884;2022-10-31T07:43:52;34.43;;;30.17;;
15905;SDS011;8051;50.820;4.884;2022-10-31T07:46:21;36.37;;;29.50;;
15905;SDS011;8051;50.820;4.884;2022-10-31T07:48:48;36.40;;;29.07;;
15905;SDS011;8051;50.820;4.884;2022-10-31T07:51:16;33.73;;;27.93;;
15905;SDS011;8051;50.820;4.884;2022-10-31T07:53:43;38.63;;;28.53;;
15905;SDS011;8051;50.820;4.884;2022-10-31T07:56:11;33.43;;;27.93;;
15905;SDS011;8051;50.820;4.884;2022-10-31T07:58:38;38.30;;;27.83;;
15905;SDS011;8051;50.820;4.884;2022-10-31T08:01:06;40.40;;;32.23;;
15905;SDS011;8051;50.820;4.884;2022-10-31T08:03:34;40.33;;;29.80;;
15905;SDS011;8051;50.820;4.884;2022-10-31T08:06:02;41.97;;;30.23;;
15905;SDS011;8051;50.820;4.884;2022-10-31T08:08:29;35.77;;;29.10;;
15905;SDS011;8051;50.820;4.884;2022-10-31T08:10:57;35.13;;;28.23;;
15905;SDS011;8051;50.820;4.884;2022-10-31T08:13:25;33.37;;;28.20;;
15905;SDS011;8051;50.820;4.884;2022-10-31T08:15:52;38.77;;;29.23;;
15905;SDS011;8051;50.820;4.884;2022-10-31T08:18:20;32.17;;;28.70;;
15905;SDS011;8051;50.820;4.884;2022-10-31T08:20:50;33.67;;;29.00;;
15905;SDS011;8051;50.820;4.884;2022-10-31T08:23:17;34.53;;;27.53;;
15905;SDS011;8051;50.820;4.884;2022-10-31T08:25:45;32.43;;;27.07;;
15905;SDS011;8051;50.820;4.884;2022-10-31T08:28:13;32.07;;;28.77;;
15905;SDS011;8051;50.820;4.884;2022-10-31T08:30:41;37.03;;;29.77;;
15905;SDS011;8051;50.820;4.884;2022-10-31T08:33:09;34.63;;;30.10;;
15905;SDS011;8051;50.820;4.884;2022-10-31T08:35:38;36.47;;;27.70;;
15905;SDS011;8051;50.820;4.884;2022-10-31T08:38:08;43.83;;;33.30;;
15905;SDS011;8051;50.820;4.884;2022-10-31T08:40:36;37.20;;;32.33;;
15905;SDS011;8051;50.820;4.884;2022-10-31T08:43:04;34.80;;;29.40;;
15905;SDS011;8051;50.820;4.884;2022-10-31T08:45:33;32.07;;;28.70;;
15905;SDS011;8051;50.820;4.884;2022-10-31T08:48:01;34.50;;;29.40;;
15905;SDS011;8051;50.820;4.884;2022-10-31T08:50:31;39.80;;;29.97;;
15905;SDS011;8051;50.820;4.884;2022-10-31T08:53:00;36.63;;;29.17;;
15905;SDS011;8051;50.820;4.884;2022-10-31T08:55:29;31.00;;;27.73;;
15905;SDS011;8051;50.820;4.884;2022-10-31T08:57:56;37.87;;;29.63;;
15905;SDS011;8051;50.820;4.884;2022-10-31T09:00:25;31.37;;;28.03;;
15905;SDS011;8051;50.820;4.884;2022-10-31T09:02:56;34.67;;;28.97;;
15905;SDS011;8051;50.820;4.884;2022-10-31T09:05:26;31.97;;;26.93;;
15905;SDS011;8051;50.820;4.884;2022-10-31T09:07:55;33.90;;;28.30;;
15905;SDS011;8051;50.820;4.884;2022-10-31T09:10:23;30.17;;;26.97;;
15905;SDS011;8051;50.820;4.884;2022-10-31T09:12:56;30.53;;;27.43;;
15905;SDS011;8051;50.820;4.884;2022-10-31T09:15:24;32.37;;;27.70;;
15905;SDS011;8051;50.820;4.884;2022-10-31T09:17:52;30.67;;;27.53;;
15905;SDS011;8051;50.820;4.884;2022-10-31T09:20:20;34.43;;;27.60;;
15905;SDS011;8051;50.820;4.884;2022-10-31T09:22:47;32.13;;;28.67;;
15905;SDS011;8051;50.820;4.884;2022-10-31T09:25:21;31.93;;;28.63;;
15905;SDS011;8051;50.820;4.884;2022-10-31T09:27:49;33.17;;;29.80;;
15905;SDS011;8051;50.820;4.884;2022-10-31T09:30:18;36.97;;;33.10;;
15905;SDS011;8051;50.820;4.884;2022-10-31T09:32:45;32.63;;;28.53;;
15905;SDS011;8051;50.820;4.884;2022-10-31T09:35:13;39.67;;;30.23;;
15905;SDS011;8051;50.820;4.884;2022-10-31T09:37:40;32.73;;;29.30;;
15905;SDS011;8051;50.820;4.884;2022-10-31T09:40:09;30.73;;;27.83;;
15905;SDS011;8051;50.820;4.884;2022-10-31T09:42:42;35.70;;;32.00;;
15905;SDS011;8051;50.820;4.884;2022-10-31T09:45:25;33.67;;;30.30;;
15905;SDS011;8051;50.820;4.884;2022-10-31T09:48:10;31.97;;;28.80;;
15905;SDS011;8051;50.820;4.884;2022-10-31T09:50:46;33.63;;;29.30;;
15905;SDS011;8051;50.820;4.884;2022-10-31T09:53:20;32.40;;;29.40;;
15905;SDS011;8051;50.820;4.884;2022-10-31T09:55:52;35.20;;;30.40;;
15905;SDS011;8051;50.820;4.884;2022-10-31T09:58:20;33.30;;;27.97;;
15905;SDS011;8051;50.820;4.884;2022-10-31T10:00:53;36.43;;;28.93;;
15905;SDS011;8051;50.820;4.884;2022-10-31T10:03:27;32.43;;;29.30;;
15905;SDS011;8051;50.820;4.884;2022-10-31T10:06:01;33.27;;;29.77;;
15905;SDS011;8051;50.820;4.884;2022-10-31T10:08:38;32.53;;;29.17;;
15905;SDS011;8051;50.820;4.884;2022-10-31T10:11:12;35.47;;;29.23;;
15905;SDS011;8051;50.820;4.884;2022-10-31T10:13:57;35.23;;;29.73;;
15905;SDS011;8051;50.820;4.884;2022-10-31T10:16:40;35.73;;;28.63;;
15905;SDS011;8051;50.820;4.884;2022-10-31T10:19:19;30.93;;;27.90;;
15905;SDS011;8051;50.820;4.884;2022-10-31T10:21:56;32.63;;;29.57;;
15905;SDS011;8051;50.820;4.884;2022-10-31T10:24:44;31.87;;;28.70;;
15905;SDS011;8051;50.820;4.884;2022-10-31T10:27:22;30.57;;;27.40;;
15905;SDS011;8051;50.820;4.884;2022-10-31T10:29:57;30.83;;;27.90;;
15905;SDS011;8051;50.820;4.884;2022-10-31T10:32:40;31.07;;;27.00;;
15905;SDS011;8051;50.820;4.884;2022-10-31T10:35:13;30.47;;;27.43;;
15905;SDS011;8051;50.820;4.884;2022-10-31T10:37:46;29.13;;;26.53;;
15905;SDS011;8051;50.820;4.884;2022-10-31T10:40:18;27.63;;;25.00;;
15905;SDS011;8051;50.820;4.884;2022-10-31T10:42:50;29.20;;;26.40;;
15905;SDS011;8051;50.820;4.884;2022-10-31T10:45:43;26.83;;;24.33;;
15905;SDS011;8051;50.820;4.884;2022-10-31T10:48:36;26.73;;;24.13;;
15905;SDS011;8051;50.820;4.884;2022-10-31T10:51:12;27.67;;;24.60;;
15905;SDS011;8051;50.820;4.884;2022-10-31T10:53:48;26.97;;;23.50;;
15905;SDS011;8051;50.820;4.884;2022-10-31T10:56:51;28.97;;;26.20;;
15905;SDS011;8051;50.820;4.884;2022-10-31T10:59:27;26.73;;;24.17;;
15905;SDS011;8051;50.820;4.884;2022-10-31T11:01:55;26.27;;;23.47;;
15905;SDS011;8051;50.820;4.884;2022-10-31T11:04:28;26.30;;;23.70;;
15905;SDS011;8051;50.820;4.884;2022-10-31T11:06:58;28.40;;;25.43;;
15905;SDS011;8051;50.820;4.884;2022-10-31T11:09:30;26.13;;;23.20;;
15905;SDS011;8051;50.820;4.884;2022-10-31T11:11:58;27.93;;;25.03;;
15905;SDS011;8051;50.820;4.884;2022-10-31T11:14:26;27.07;;;24.43;;
15905;SDS011;8051;50.820;4.884;2022-10-31T11:16:55;28.27;;;25.47;;
15905;SDS011;8051;50.820;4.884;2022-10-31T11:19:37;27.33;;;24.67;;
15905;SDS011;8051;50.820;4.884;2022-10-31T11:22:05;26.90;;;24.37;;
15905;SDS011;8051;50.820;4.884;2022-10-31T11:24:37;28.23;;;24.10;;
15905;SDS011;8051;50.820;4.884;2022-10-31T11:27:12;23.97;;;21.27;;
15905;SDS011;8051;50.820;4.884;2022-10-31T11:29:42;30.70;;;24.60;;
15905;SDS011;8051;50.820;4.884;2022-10-31T11:32:16;25.00;;;22.63;;
15905;SDS011;8051;50.820;4.884;2022-10-31T11:34:48;24.77;;;22.17;;
15905;SDS011;8051;50.820;4.884;2022-10-31T11:37:19;23.97;;;21.40;;
15905;SDS011;8051;50.820;4.884;2022-10-31T11:39:49;23.60;;;21.17;;
15905;SDS011;8051;50.820;4.884;2022-10-31T11:42:20;23.17;;;20.87;;
15905;SDS011;8051;50.820;4.884;2022-10-31T11:44:49;24.03;;;21.53;;
15905;SDS011;8051;50.820;4.884;2022-10-31T11:47:20;23.07;;;20.73;;
15905;SDS011;8051;50.820;4.884;2022-10-31T11:49:53;24.90;;;20.77;;
15905;SDS011;8051;50.820;4.884;2022-10-31T11:52:22;23.60;;;21.50;;
15905;SDS011;8051;50.820;4.884;2022-10-31T11:54:53;21.57;;;19.33;;
15905;SDS011;8051;50.820;4.884;2022-10-31T11:57:22;25.40;;;20.40;;
15905;SDS011;8051;50.820;4.884;2022-10-31T11:59:52;22.30;;;19.90;;
15905;SDS011;8051;50.820;4.884;2022-10-31T12:02:21;22.60;;;20.53;;
15905;SDS011;8051;50.820;4.884;2022-10-31T12:04:50;23.47;;;21.20;;
15905;SDS011;8051;50.820;4.884;2022-10-31T12:07:24;21.60;;;19.37;;
15905;SDS011;8051;50.820;4.884;2022-10-31T12:09:52;24.57;;;20.20;;
15905;SDS011;8051;50.820;4.884;2022-10-31T12:12:26;21.73;;;19.60;;
15905;SDS011;8051;50.820;4.884;2022-10-31T12:15:16;21.70;;;19.37;;
15905;SDS011;8051;50.820;4.884;2022-10-31T12:18:05;20.57;;;18.60;;
15905;SDS011;8051;50.820;4.884;2022-10-31T12:20:58;23.37;;;18.90;;
15905;SDS011;8051;50.820;4.884;2022-10-31T12:23:38;20.27;;;18.20;;
15905;SDS011;8051;50.820;4.884;2022-10-31T12:26:17;20.83;;;18.83;;
15905;SDS011;8051;50.820;4.884;2022-10-31T12:28:56;20.63;;;18.53;;
15905;SDS011;8051;50.820;4.884;2022-10-31T12:31:41;21.57;;;18.67;;
15905;SDS011;8051;50.820;4.884;2022-10-31T12:34:34;19.83;;;17.73;;
15905;SDS011;8051;50.820;4.884;2022-10-31T12:37:15;21.80;;;19.03;;
15905;SDS011;8051;50.820;4.884;2022-10-31T12:39:53;22.27;;;17.33;;
15905;SDS011;8051;50.820;4.884;2022-10-31T12:42:37;21.17;;;16.83;;
15905;SDS011;8051;50.820;4.884;2022-10-31T12:45:21;19.97;;;18.00;;
15905;SDS011;8051;50.820;4.884;2022-10-31T12:48:06;20.80;;;17.93;;
15905;SDS011;8051;50.820;4.884;2022-10-31T12:50:50;21.80;;;18.43;;
15905;SDS011;8051;50.820;4.884;2022-10-31T12:53:26;20.13;;;18.03;;
15905;SDS011;8051;50.820;4.884;2022-10-31T12:56:08;20.37;;;17.13;;
15905;SDS011;8051;50.820;4.884;2022-10-31T12:58:45;23.27;;;19.10;;
15905;SDS011;8051;50.820;4.884;2022-10-31T13:01:20;28.63;;;17.57;;
15905;SDS011;8051;50.820;4.884;2022-10-31T13:03:51;20.80;;;18.23;;
15905;SDS011;8051;50.820;4.884;2022-10-31T13:06:24;20.40;;;18.43;;
15905;SDS011;8051;50.820;4.884;2022-10-31T13:08:59;20.23;;;17.67;;
15905;SDS011;8051;50.820;4.884;2022-10-31T13:11:29;21.87;;;19.63;;
15905;SDS011;8051;50.820;4.884;2022-10-31T13:14:01;21.33;;;18.57;;
15905;SDS011;8051;50.820;4.884;2022-10-31T13:16:34;21.20;;;19.20;;
15905;SDS011;8051;50.820;4.884;2022-10-31T13:19:04;20.17;;;18.13;;
15905;SDS011;8051;50.820;4.884;2022-10-31T13:21:39;27.33;;;19.33;;
15905;SDS011;8051;50.820;4.884;2022-10-31T13:24:12;20.87;;;18.70;;
15905;SDS011;8051;50.820;4.884;2022-10-31T13:26:50;20.83;;;18.87;;
15905;SDS011;8051;50.820;4.884;2022-10-31T13:29:30;20.43;;;18.53;;
15905;SDS011;8051;50.820;4.884;2022-10-31T13:32:00;20.20;;;17.87;;
15905;SDS011;8051;50.820;4.884;2022-10-31T13:34:32;21.63;;;18.60;;
15905;SDS011;8051;50.820;4.884;2022-10-31T13:37:05;22.97;;;19.90;;
15905;SDS011;8051;50.820;4.884;2022-10-31T13:40:03;21.27;;;19.20;;
15905;SDS011;8051;50.820;4.884;2022-10-31T13:42:42;21.87;;;19.60;;
15905;SDS011;8051;50.820;4.884;2022-10-31T13:45:19;23.43;;;21.03;;
15905;SDS011;8051;50.820;4.884;2022-10-31T13:47:57;26.80;;;20.33;;
15905;SDS011;8051;50.820;4.884;2022-10-31T13:50:26;22.87;;;19.60;;
15905;SDS011;8051;50.820;4.884;2022-10-31T13:53:14;22.00;;;19.53;;
15905;SDS011;8051;50.820;4.884;2022-10-31T13:55:48;26.37;;;20.80;;
15905;SDS011;8051;50.820;4.884;2022-10-31T13:58:21;22.47;;;20.37;;
15905;SDS011;8051;50.820;4.884;2022-10-31T14:03:47;23.60;;;20.30;;
15905;SDS011;8051;50.820;4.884;2022-10-31T14:06:34;25.80;;;21.30;;
15905;SDS011;8051;50.820;4.884;2022-10-31T14:09:04;25.93;;;20.97;;
15905;SDS011;8051;50.820;4.884;2022-10-31T14:11:34;23.67;;;21.30;;
15905;SDS011;8051;50.820;4.884;2022-10-31T14:14:01;26.90;;;22.67;;
15905;SDS011;8051;50.820;4.884;2022-10-31T14:16:30;24.27;;;21.53;;
15905;SDS011;8051;50.820;4.884;2022-10-31T14:19:04;23.20;;;20.97;;
15905;SDS011;8051;50.820;4.884;2022-10-31T14:21:37;31.33;;;23.20;;
15905;SDS011;8051;50.820;4.884;2022-10-31T14:24:12;23.50;;;20.97;;
15905;SDS011;8051;50.820;4.884;2022-10-31T14:26:52;26.90;;;20.67;;
15905;SDS011;8051;50.820;4.884;2022-10-31T14:29:22;33.23;;;22.97;;
15905;SDS011;8051;50.820;4.884;2022-10-31T14:31:52;25.60;;;22.83;;
15905;SDS011;8051;50.820;4.884;2022-10-31T14:34:22;23.40;;;21.10;;
15905;SDS011;8051;50.820;4.884;2022-10-31T14:40:00;26.70;;;20.63;;
15905;SDS011;8051;50.820;4.884;2022-10-31T14:42:45;22.57;;;19.83;;
15905;SDS011;8051;50.820;4.884;2022-10-31T14:45:25;24.60;;;20.30;;
15905;SDS011;8051;50.820;4.884;2022-10-31T14:48:02;28.83;;;19.23;;
15905;SDS011;8051;50.820;4.884;2022-10-31T14:50:41;21.73;;;19.43;;
15905;SDS011;8051;50.820;4.884;2022-10-31T14:53:14;22.23;;;18.53;;
15905;SDS011;8051;50.820;4.884;2022-10-31T14:55:48;20.20;;;18.30;;
15905;SDS011;8051;50.820;4.884;2022-10-31T14:58:21;21.73;;;19.50;;
15905;SDS011;8051;50.820;4.884;2022-10-31T15:00:53;20.37;;;18.33;;
15905;SDS011;8051;50.820;4.884;2022-10-31T15:03:24;23.27;;;19.17;;
15905;SDS011;8051;50.820;4.884;2022-10-31T15:05:57;19.97;;;18.00;;